createdAt,value
2019-02-19T04:38:49.783Z,1
2019-02-19T04:39:49.773Z,1
2019-02-19T04:40:49.814Z,1
2019-02-19T04:41:49.754Z,1
2019-02-19T04:42:49.746Z,1
2019-02-19T04:43:49.753Z,1
2019-02-19T04:44:49.720Z,1
2019-02-19T04:45:49.715Z,1
2019-02-19T04:46:49.697Z,1
2019-02-19T04:47:49.685Z,1
2019-02-19T04:48:49.675Z,1
2019-02-19T04:49:49.674Z,1
2019-02-19T04:50:49.663Z,1
2019-02-19T04:51:49.644Z,1
2019-02-19T04:52:49.633Z,1
2019-02-19T04:53:49.632Z,1
2019-02-19T04:54:49.609Z,1
2019-02-19T04:55:49.643Z,1
2019-02-19T04:56:49.632Z,1
2019-02-19T04:57:49.594Z,1
2019-02-19T04:58:49.573Z,1
2019-02-19T04:59:49.564Z,1
2019-02-19T05:00:49.563Z,1
2019-02-19T05:01:49.543Z,1
2019-02-19T05:02:51.541Z,2
2019-02-19T05:03:49.515Z,2
2019-02-19T05:04:49.571Z,2
2019-02-19T05:05:49.491Z,2
2019-02-19T05:06:49.483Z,2
2019-02-19T05:07:49.479Z,2
2019-02-19T05:08:49.468Z,2
2019-02-19T05:09:49.450Z,2
2019-02-19T05:10:49.449Z,2
2019-02-19T05:11:49.424Z,2
2019-02-19T05:12:49.461Z,2
2019-02-19T05:13:49.396Z,2
2019-02-19T05:14:49.402Z,2
2019-02-19T05:15:49.380Z,2
2019-02-19T05:16:49.379Z,2
2019-02-19T05:17:49.353Z,2
2019-02-19T05:18:49.365Z,2
2019-02-19T05:19:49.352Z,2
2019-02-19T05:20:49.343Z,2
2019-02-19T05:21:49.353Z,2
2019-02-19T05:22:49.321Z,2
2019-02-19T05:23:49.301Z,2
2019-02-19T05:24:49.282Z,2
2019-02-19T05:25:49.272Z,2
2019-02-19T05:26:49.267Z,2
2019-02-19T05:27:49.256Z,2
2019-02-19T05:28:49.244Z,2
2019-02-19T05:29:49.230Z,2
2019-02-19T05:30:49.222Z,2
2019-02-19T05:31:49.207Z,2
2019-02-19T05:32:49.197Z,2
2019-02-19T05:33:49.187Z,2
2019-02-19T05:34:49.177Z,2
2019-02-19T05:35:49.166Z,2
2019-02-19T05:36:49.234Z,2
2019-02-19T05:37:49.147Z,2
2019-02-19T05:38:49.350Z,2
2019-02-19T05:39:49.410Z,2
2019-02-19T05:40:49.109Z,2
2019-02-19T05:41:49.099Z,2
2019-02-19T05:42:49.087Z,2
2019-02-19T05:43:49.105Z,2
2019-02-19T05:44:49.173Z,2
2019-02-19T05:45:49.065Z,2
2019-02-19T05:46:50.154Z,2
2019-02-19T05:47:49.034Z,2
2019-02-19T05:48:49.021Z,2
2019-02-19T05:49:49.013Z,2
2019-02-19T05:50:49.003Z,2
2019-02-19T05:51:48.986Z,2
2019-02-19T05:52:48.975Z,2
2019-02-19T05:53:48.962Z,2
2019-02-19T05:54:49.010Z,2
2019-02-19T05:55:48.955Z,2
2019-02-19T05:56:48.932Z,2
2019-02-19T05:57:48.923Z,2
2019-02-19T05:58:48.906Z,2
2019-02-19T05:59:48.910Z,2
2019-02-19T06:00:48.886Z,2
2019-02-19T06:01:48.971Z,2
2019-02-19T06:02:48.885Z,2
2019-02-19T06:03:48.875Z,2
2019-02-19T06:04:48.853Z,2
2019-02-19T06:05:48.846Z,2
2019-02-19T06:06:48.825Z,2
2019-02-19T06:07:48.814Z,2
2019-02-19T06:08:48.814Z,2
2019-02-19T06:09:48.807Z,2
2019-02-19T06:10:48.782Z,2
2019-02-19T06:11:48.765Z,2
2019-02-19T06:12:48.817Z,2
2019-02-19T06:13:48.744Z,2
2019-02-19T06:14:48.793Z,2
2019-02-19T06:15:48.740Z,2
2019-02-19T06:16:48.713Z,24.
2019-02-19T06:17:48.833Z,24.
2019-02-19T06:18:48.688Z,22.
2019-02-19T06:19:48.730Z,23.
2019-02-19T06:20:48.669Z,23.
2019-02-19T06:21:48.673Z,22.
2019-02-19T06:22:48.668Z,23.
2019-02-19T06:23:48.747Z,23.
2019-02-19T06:24:48.625Z,22.
2019-02-19T06:25:48.631Z,22.
2019-02-19T06:26:48.610Z,22.
2019-02-19T06:27:48.611Z,23.
2019-02-19T06:28:48.592Z,23.
2019-02-19T06:29:48.578Z,23.
2019-02-19T06:30:48.786Z,22.
2019-02-19T06:31:48.593Z,22.
2019-02-19T06:32:48.541Z,22.
2019-02-19T06:33:48.576Z,22.
2019-02-19T06:34:48.524Z,22.
2019-02-19T06:35:48.556Z,23.
2019-02-19T06:36:48.572Z,23.
2019-02-19T06:37:48.549Z,23.
2019-02-19T06:38:48.512Z,22.70
2019-02-19T06:39:48.511Z,23.50
2019-02-19T06:40:48.478Z,23.60
2019-02-19T06:41:48.483Z,23.20
2019-02-19T06:42:48.456Z,23.39
2019-02-19T06:43:48.413Z,22.20
2019-02-19T06:44:48.407Z,23.20
2019-02-19T06:45:48.899Z,24.00
2019-02-19T06:46:49.934Z,25.10
2019-02-19T06:47:48.403Z,23.79
2019-02-19T06:48:48.518Z,24.89
2019-02-19T06:49:48.374Z,25.60
2019-02-19T06:50:48.339Z,25.70
2019-02-19T06:51:48.350Z,24.10
2019-02-19T06:52:48.329Z,24.89
2019-02-19T06:53:48.308Z,24.20
2019-02-19T06:54:48.329Z,24.60
2019-02-19T06:55:48.334Z,24.50
2019-02-19T06:56:48.335Z,25.50
2019-02-19T06:57:48.272Z,25.39
2019-02-19T06:58:48.275Z,24.50
2019-02-19T06:59:48.246Z,24.29
2019-02-19T07:00:48.243Z,24.39
2019-02-19T07:01:48.229Z,23.29
2019-02-19T07:02:48.214Z,23.39
2019-02-19T07:03:48.300Z,24.60
2019-02-19T07:04:48.210Z,24.10
2019-02-19T07:05:48.179Z,23.70
2019-02-19T07:06:48.175Z,23.89
2019-02-19T07:07:48.154Z,24.39
2019-02-19T07:08:48.152Z,24.50
2019-02-19T07:09:48.137Z,24.10
2019-02-19T07:10:48.122Z,24.79
2019-02-19T07:11:48.110Z,25.10
2019-02-19T07:12:48.168Z,23.39
2019-02-19T07:13:48.097Z,24.50
2019-02-19T07:14:48.105Z,23.79
2019-02-19T07:15:48.090Z,24.20
2019-02-19T07:16:48.067Z,23.20
2019-02-19T07:17:48.056Z,24.00
2019-02-19T07:18:48.041Z,23.00
2019-02-19T07:19:51.211Z,22.50
2019-02-19T07:20:48.084Z,22.39
2019-02-19T07:21:48.003Z,22.20
2019-02-19T07:22:48.003Z,23.00
2019-02-19T07:23:48.002Z,24.10
2019-02-19T07:24:47.967Z,23.20
2019-02-19T07:25:49.001Z,23.10
2019-02-19T07:26:47.949Z,24.89
2019-02-19T07:27:47.940Z,23.29
2019-02-19T07:28:47.924Z,22.79
2019-02-19T07:29:47.986Z,23.50
2019-02-19T07:30:49.568Z,23.60
2019-02-19T07:31:47.902Z,24.39
2019-02-19T07:32:47.896Z,23.29
2019-02-19T07:33:47.877Z,22.70
2019-02-19T07:34:47.861Z,22.29
2019-02-19T07:35:47.856Z,23.60
2019-02-19T07:36:47.842Z,22.20
2019-02-19T07:37:47.871Z,22.89
2019-02-19T07:38:47.847Z,22.79
2019-02-19T07:39:47.809Z,22.00
2019-02-19T07:40:47.802Z,22.79
2019-02-19T07:41:47.792Z,22.50
2019-02-19T07:42:47.775Z,22.10
2019-02-19T07:43:47.764Z,21.89
2019-02-19T07:44:47.754Z,20.29
2019-02-19T07:45:47.748Z,19.70
2019-02-19T07:46:47.744Z,20.60
2019-02-19T07:47:47.720Z,20.89
2019-02-19T07:48:47.737Z,20.29
2019-02-19T07:49:47.708Z,20.60
2019-02-19T07:50:47.700Z,20.20
2019-02-19T07:51:47.696Z,18.50
2019-02-19T07:52:47.702Z,17.79
2019-02-19T07:53:47.654Z,18.29
2019-02-19T07:54:47.669Z,17.89
2019-02-19T07:55:47.677Z,18.00
2019-02-19T07:56:47.639Z,17.70
2019-02-19T07:57:47.621Z,17.50
2019-02-19T07:58:47.599Z,17.10
2019-02-19T07:59:47.939Z,16.00
2019-02-19T08:00:47.817Z,16.20
2019-02-19T08:01:47.580Z,16.39
2019-02-19T08:02:47.624Z,15.60
2019-02-19T08:03:47.545Z,14.60
2019-02-19T08:04:47.610Z,14.39
2019-02-19T08:05:47.542Z,14.69
2019-02-19T08:06:47.581Z,14.69
2019-02-19T08:07:47.514Z,14.30
2019-02-19T08:08:47.506Z,13.50
2019-02-19T08:09:47.494Z,13.50
2019-02-19T08:10:47.480Z,12.89
2019-02-19T08:11:47.485Z,12.80
2019-02-19T08:12:47.476Z,12.39
2019-02-19T08:13:47.448Z,13.19
2019-02-19T08:14:47.431Z,12.30
2019-02-19T08:15:47.426Z,13.10
2019-02-19T08:16:47.408Z,12.00
2019-02-19T08:17:47.632Z,11.80
2019-02-19T08:18:47.385Z,11.89
2019-02-19T08:19:48.759Z,11.89
2019-02-19T08:20:47.379Z,12.50
2019-02-19T08:21:47.358Z,12.89
2019-02-19T08:22:47.341Z,13.19
2019-02-19T08:23:47.365Z,13.19
2019-02-19T08:24:47.321Z,12.50
2019-02-19T08:25:47.310Z,13.19
2019-02-19T08:26:47.310Z,13.50
2019-02-19T08:27:47.294Z,12.89
2019-02-19T08:28:47.276Z,13.50
2019-02-19T08:29:47.310Z,13.60
2019-02-19T08:30:47.709Z,13.50
2019-02-19T08:31:47.255Z,13.30
2019-02-19T08:32:47.240Z,13.39
2019-02-19T08:33:47.227Z,12.89
2019-02-19T08:34:47.205Z,13.50
2019-02-19T08:35:47.194Z,13.19
2019-02-19T08:36:47.207Z,12.89
2019-02-19T08:37:47.200Z,12.60
2019-02-19T08:38:47.169Z,12.80
2019-02-19T08:39:47.161Z,13.19
2019-02-19T08:40:47.151Z,13.00
2019-02-19T08:41:47.136Z,13.00
2019-02-19T08:42:47.126Z,12.80
2019-02-19T08:43:47.157Z,13.30
2019-02-19T08:44:47.127Z,12.50
2019-02-19T08:45:47.092Z,11.80
2019-02-19T08:46:47.106Z,12.69
2019-02-19T08:47:47.079Z,12.69
2019-02-19T08:48:47.057Z,12.60
2019-02-19T08:49:47.061Z,12.10
2019-02-19T08:50:47.041Z,12.39
2019-02-19T08:51:55.745Z,12.39
2019-02-19T08:53:11.801Z,12.19
2019-02-19T08:54:11.817Z,12.69
2019-02-19T08:55:11.802Z,13.39
2019-02-19T08:56:11.807Z,13.30
2019-02-19T08:57:11.819Z,12.50
2019-02-19T08:58:11.754Z,12.00
2019-02-19T08:59:11.732Z,12.80
2019-02-19T09:00:25.704Z,12.00
2019-02-19T09:01:36.797Z,10.10
2019-02-19T09:02:36.801Z,10.30
2019-02-19T09:03:36.789Z,11.00
2019-02-19T09:04:36.764Z,10.10
2019-02-19T09:05:36.772Z,9.10
2019-02-19T09:06:36.741Z,8.19
2019-02-19T09:07:36.730Z,9.19
2019-02-19T09:08:37.511Z,8.69
2019-02-19T09:09:36.707Z,9.19
2019-02-19T09:10:36.696Z,8.69
2019-02-19T09:11:36.710Z,8.39
2019-02-19T09:12:36.720Z,8.50
2019-02-19T09:13:36.671Z,8.50
2019-02-19T09:14:36.666Z,8.60
2019-02-19T09:15:36.640Z,7.80
2019-02-19T09:16:36.637Z,7.59
2019-02-19T09:17:36.621Z,8.19
2019-02-19T09:18:36.621Z,8.30
2019-02-19T09:19:36.690Z,8.00
2019-02-19T09:20:36.917Z,8.00
2019-02-19T09:21:36.575Z,8.30
2019-02-19T09:22:36.566Z,8.19
2019-02-19T09:23:36.600Z,7.80
2019-02-19T09:24:36.536Z,8.19
2019-02-19T09:25:36.536Z,7.90
2019-02-19T09:26:36.518Z,8.19
2019-02-19T09:27:36.509Z,8.30
2019-02-19T09:28:36.511Z,7.90
2019-02-19T09:29:36.528Z,8.30
2019-02-19T09:30:36.470Z,8.19
2019-02-19T09:31:36.461Z,8.00
2019-02-19T09:32:36.491Z,7.80
2019-02-19T09:33:36.452Z,8.39
2019-02-19T09:34:36.428Z,8.00
2019-02-19T09:35:36.450Z,8.30
2019-02-19T09:36:36.439Z,7.40
2019-02-19T09:37:38.940Z,8.10
2019-02-19T09:38:36.475Z,8.10
2019-02-19T09:39:37.562Z,8.00
2019-02-19T09:40:36.374Z,8.19
2019-02-19T09:41:36.366Z,7.90
2019-02-19T09:42:36.352Z,7.50
2019-02-19T09:43:36.333Z,7.90
2019-02-19T09:44:36.325Z,8.19
2019-02-19T09:45:36.432Z,8.39
2019-02-19T09:46:36.307Z,7.90
2019-02-19T09:47:36.298Z,8.30
2019-02-19T09:48:36.279Z,8.19
2019-02-19T09:49:36.263Z,7.80
2019-02-19T09:50:36.254Z,7.40
2019-02-19T09:51:36.249Z,7.40
2019-02-19T09:52:36.252Z,8.00
2019-02-19T09:53:36.231Z,7.50
2019-02-19T09:54:38.276Z,7.40
2019-02-19T09:55:36.300Z,7.30
2019-02-19T09:56:36.187Z,7.59
2019-02-19T09:57:36.194Z,7.80
2019-02-19T09:58:36.216Z,7.90
2019-02-19T09:59:36.175Z,8.00
2019-02-19T10:00:45.106Z,8.10
2019-02-19T10:02:01.800Z,8.30
2019-02-19T10:03:01.824Z,8.80
2019-02-19T10:04:01.750Z,8.39
2019-02-19T10:05:01.830Z,8.80
2019-02-19T10:06:01.816Z,9.19
2019-02-19T10:07:01.718Z,8.69
2019-02-19T10:08:01.724Z,8.50
2019-02-19T10:09:01.698Z,9.30
2019-02-19T10:10:01.700Z,9.00
2019-02-19T10:11:01.760Z,9.80
2019-02-19T10:12:01.666Z,9.00
2019-02-19T10:13:01.646Z,8.39
2019-02-19T10:14:01.762Z,9.00
2019-02-19T10:15:01.635Z,9.10
2019-02-19T10:16:01.704Z,8.89
2019-02-19T10:17:01.754Z,8.30
2019-02-19T10:18:09.727Z,8.39
2019-02-19T10:19:27.528Z,7.59
2019-02-19T10:20:27.549Z,7.59
2019-02-19T10:21:27.594Z,8.39
2019-02-19T10:22:27.504Z,7.80
2019-02-19T10:23:27.514Z,8.00
2019-02-19T10:24:27.477Z,7.50
2019-02-19T10:25:27.471Z,7.30
2019-02-19T10:26:27.432Z,7.19
2019-02-19T10:27:27.430Z,7.59
2019-02-19T10:28:27.425Z,7.30
2019-02-19T10:29:27.402Z,7.69
2019-02-19T10:30:27.393Z,7.40
2019-02-19T10:31:27.400Z,7.30
2019-02-19T10:32:27.373Z,7.00
2019-02-19T10:33:27.371Z,6.59
2019-02-19T10:34:27.354Z,6.40
2019-02-19T10:35:27.340Z,6.80
2019-02-19T10:36:29.960Z,6.09
2019-02-19T10:37:27.311Z,6.09
2019-02-19T10:38:27.321Z,6.30
2019-02-19T10:39:27.308Z,6.40
2019-02-19T10:40:27.302Z,5.69
2019-02-19T10:41:27.479Z,6.09
2019-02-19T10:42:27.281Z,6.00
2019-02-19T10:43:27.248Z,6.50
2019-02-19T10:44:27.252Z,5.90
2019-02-19T10:45:27.239Z,5.69
2019-02-19T10:46:27.234Z,6.00
2019-02-19T10:47:27.232Z,6.19
2019-02-19T10:48:27.204Z,6.80
2019-02-19T10:49:27.212Z,6.40
2019-02-19T10:50:27.196Z,6.19
2019-02-19T10:51:27.173Z,6.30
2019-02-19T10:52:27.149Z,5.80
2019-02-19T10:53:27.145Z,6.19
2019-02-19T10:54:27.141Z,6.40
2019-02-19T10:55:27.116Z,6.50
2019-02-19T10:56:27.100Z,6.19
2019-02-19T10:57:27.114Z,6.09
2019-02-19T10:58:27.100Z,6.50
2019-02-19T10:59:27.099Z,6.40
2019-02-19T11:00:27.097Z,6.59
2019-02-19T11:01:27.062Z,6.40
2019-02-19T11:02:27.041Z,5.80
2019-02-19T11:03:27.042Z,6.09
2019-02-19T11:04:27.027Z,6.50
2019-02-19T11:05:27.005Z,6.30
2019-02-19T11:06:27.020Z,7.00
2019-02-19T11:07:26.996Z,5.90
2019-02-19T11:08:27.006Z,6.40
2019-02-19T11:09:26.970Z,6.00
2019-02-19T11:10:27.955Z,6.30
2019-02-19T11:11:26.942Z,6.09
2019-02-19T11:12:26.937Z,5.50
2019-02-19T11:13:26.948Z,5.69
2019-02-19T11:14:26.913Z,5.59
2019-02-19T11:15:28.345Z,6.00
2019-02-19T11:16:26.892Z,5.50
2019-02-19T11:17:26.892Z,5.50
2019-02-19T11:18:28.760Z,5.40
2019-02-19T11:19:26.852Z,5.59
2019-02-19T11:20:26.875Z,5.69
2019-02-19T11:21:26.843Z,5.90
2019-02-19T11:22:26.865Z,5.90
2019-02-19T11:23:26.849Z,5.50
2019-02-19T11:24:26.816Z,4.50
2019-02-19T11:25:26.800Z,4.30
2019-02-19T11:26:26.791Z,4.30
2019-02-19T11:27:26.787Z,4.19
2019-02-19T11:28:26.761Z,4.69
2019-02-19T11:29:26.758Z,4.09
2019-02-19T11:30:26.773Z,3.79
2019-02-19T11:31:26.723Z,3.79
2019-02-19T11:32:26.711Z,3.50
2019-02-19T11:33:26.712Z,3.40
2019-02-19T11:34:26.747Z,3.70
2019-02-19T11:35:26.728Z,3.20
2019-02-19T11:36:29.295Z,3.09
2019-02-19T11:37:27.005Z,3.00
2019-02-19T11:38:26.680Z,3.00
2019-02-19T11:39:26.743Z,3.00
2019-02-19T11:40:26.727Z,2.59
2019-02-19T11:41:26.629Z,2.50
2019-02-19T11:42:26.677Z,3.09
2019-02-19T11:43:26.588Z,2.70
2019-02-19T11:44:26.582Z,2.70
2019-02-19T11:45:26.573Z,2.90
2019-02-19T11:46:26.630Z,2.59
2019-02-19T11:47:26.843Z,2.79
2019-02-19T11:48:26.544Z,2.50
2019-02-19T11:49:26.525Z,2.70
2019-02-19T11:50:26.539Z,2.79
2019-02-19T11:51:26.500Z,2.79
2019-02-19T11:52:26.493Z,2.79
2019-02-19T11:53:26.486Z,2.79
2019-02-19T11:54:26.535Z,2.59
2019-02-19T11:55:26.506Z,2.59
2019-02-19T11:56:26.457Z,2.70
2019-02-19T11:57:26.448Z,2.50
2019-02-19T11:58:26.478Z,2.59
2019-02-19T11:59:26.408Z,2.70
2019-02-19T12:00:43.368Z,2.50
2019-02-19T12:01:51.801Z,2.79
2019-02-19T12:02:51.809Z,3.20
2019-02-19T12:03:51.849Z,3.09
2019-02-19T12:04:51.773Z,2.50
2019-02-19T12:05:51.735Z,3.00
2019-02-19T12:06:51.728Z,2.90
2019-02-19T12:07:51.714Z,3.00
2019-02-19T12:08:51.704Z,3.29
2019-02-19T12:09:51.692Z,2.70
2019-02-19T12:10:51.716Z,3.00
2019-02-19T12:11:51.673Z,2.40
2019-02-19T12:12:51.671Z,2.70
2019-02-19T12:13:51.653Z,2.90
2019-02-19T12:14:51.640Z,2.90
2019-02-19T12:15:51.630Z,3.40
2019-02-19T12:16:51.637Z,3.00
2019-02-19T12:17:51.638Z,2.50
2019-02-19T12:18:51.609Z,2.90
2019-02-19T12:19:51.588Z,3.09
2019-02-19T12:20:51.607Z,2.79
2019-02-19T12:21:51.562Z,3.00
2019-02-19T12:22:51.606Z,2.79
2019-02-19T12:23:51.551Z,2.70
2019-02-19T12:24:51.527Z,2.79
2019-02-19T12:25:51.532Z,2.79
2019-02-19T12:26:51.520Z,2.70
2019-02-19T12:27:51.534Z,2.90
2019-02-19T12:28:51.513Z,2.79
2019-02-19T12:29:51.553Z,2.70
2019-02-19T12:30:51.468Z,2.79
2019-02-19T12:31:51.536Z,2.70
2019-02-19T12:32:51.438Z,2.79
2019-02-19T12:33:51.522Z,2.79
2019-02-19T12:34:51.430Z,2.79
2019-02-19T12:35:51.409Z,3.00
2019-02-19T12:36:51.408Z,3.00
2019-02-19T12:37:51.401Z,2.70
2019-02-19T12:38:51.381Z,2.79
2019-02-19T12:39:51.371Z,3.00
2019-02-19T12:40:51.380Z,3.00
2019-02-19T12:41:51.345Z,3.00
2019-02-19T12:42:51.521Z,2.90
2019-02-19T12:43:51.330Z,3.00
2019-02-19T12:44:51.302Z,3.29
2019-02-19T12:45:51.351Z,2.79
2019-02-19T12:46:51.302Z,2.90
2019-02-19T12:47:51.291Z,2.59
2019-02-19T12:48:54.658Z,3.40
2019-02-19T12:49:51.259Z,3.09
2019-02-19T12:50:51.260Z,3.29
2019-02-19T12:51:51.236Z,3.50
2019-02-19T12:52:51.231Z,3.40
2019-02-19T12:53:51.209Z,3.09
2019-02-19T12:54:51.206Z,2.90
2019-02-19T12:55:51.190Z,3.09
2019-02-19T12:56:51.210Z,3.00
2019-02-19T12:57:51.181Z,2.90
2019-02-19T12:58:51.164Z,2.90
2019-02-19T12:59:56.534Z,2.90
2019-02-19T13:00:51.135Z,2.79
2019-02-19T13:01:51.123Z,2.59
2019-02-19T13:02:51.118Z,2.79
2019-02-19T13:03:51.097Z,2.50
2019-02-19T13:04:51.092Z,2.70
2019-02-19T13:05:51.075Z,2.40
2019-02-19T13:06:51.120Z,2.59
2019-02-19T13:07:51.086Z,2.90
2019-02-19T13:08:51.102Z,2.29
2019-02-19T13:09:51.027Z,2.40
2019-02-19T13:10:51.017Z,2.40
2019-02-19T13:11:51.014Z,2.20
2019-02-19T13:12:51.047Z,2.00
2019-02-19T13:13:51.037Z,2.29
2019-02-19T13:14:50.984Z,2.50
2019-02-19T13:15:50.972Z,2.40
2019-02-19T13:16:50.962Z,2.70
2019-02-19T13:17:50.986Z,2.40
2019-02-19T13:18:50.935Z,2.50
2019-02-19T13:19:50.940Z,2.20
2019-02-19T13:20:50.940Z,2.29
2019-02-19T13:21:50.916Z,2.09
2019-02-19T13:22:50.891Z,2.40
2019-02-19T13:23:50.876Z,2.09
2019-02-19T13:24:50.893Z,2.29
2019-02-19T13:25:50.851Z,2.20
2019-02-19T13:26:50.858Z,2.59
2019-02-19T13:27:50.847Z,2.20
2019-02-19T13:28:50.835Z,2.29
2019-02-19T13:29:50.826Z,2.50
2019-02-19T13:30:50.813Z,2.09
2019-02-19T13:31:50.787Z,2.50
2019-02-19T13:32:50.810Z,2.20
2019-02-19T13:33:50.771Z,2.40
2019-02-19T13:34:50.774Z,2.50
2019-02-19T13:35:51.254Z,2.59
2019-02-19T13:36:50.739Z,2.29
2019-02-19T13:37:50.730Z,2.79
2019-02-19T13:38:50.730Z,2.40
2019-02-19T13:39:50.719Z,2.90
2019-02-19T13:40:50.703Z,2.70
2019-02-19T13:41:50.704Z,2.20
2019-02-19T13:42:50.759Z,2.29
2019-02-19T13:43:50.689Z,2.50
2019-02-19T13:44:50.664Z,2.59
2019-02-19T13:45:50.725Z,2.40
2019-02-19T13:46:50.628Z,2.70
2019-02-19T13:47:50.617Z,2.50
2019-02-19T13:48:51.717Z,2.40
2019-02-19T13:49:50.604Z,2.59
2019-02-19T13:50:50.602Z,2.20
2019-02-19T13:51:50.591Z,2.40
2019-02-19T13:52:50.568Z,2.40
2019-02-19T13:53:50.565Z,2.59
2019-02-19T13:54:50.543Z,2.59
2019-02-19T13:55:52.574Z,2.50
2019-02-19T13:56:50.521Z,2.70
2019-02-19T13:57:50.530Z,2.29
2019-02-19T13:58:50.590Z,2.79
2019-02-19T13:59:50.529Z,2.50
2019-02-19T14:00:52.403Z,2.79
2019-02-19T14:01:50.468Z,2.70
2019-02-19T14:02:50.482Z,2.50
2019-02-19T14:03:50.442Z,2.70
2019-02-19T14:04:50.524Z,2.70
2019-02-19T14:05:50.418Z,2.90
2019-02-19T14:06:50.411Z,2.40
2019-02-19T14:07:50.398Z,2.70
2019-02-19T14:08:50.394Z,2.50
2019-02-19T14:09:50.391Z,2.50
2019-02-19T14:10:50.379Z,2.40
2019-02-19T14:11:50.407Z,2.50
2019-02-19T14:12:50.346Z,2.70
2019-02-19T14:13:50.334Z,2.50
2019-02-19T14:14:50.352Z,2.20
2019-02-19T14:15:50.314Z,2.09
2019-02-19T14:16:52.168Z,2.70
2019-02-19T14:17:50.332Z,2.20
2019-02-19T14:18:50.299Z,2.29
2019-02-19T14:19:50.294Z,2.50
2019-02-19T14:20:50.270Z,2.29
2019-02-19T14:21:50.282Z,2.20
2019-02-19T14:22:50.270Z,2.29
2019-02-19T14:23:50.235Z,2.40
2019-02-19T14:24:50.233Z,2.50
2019-02-19T14:25:50.227Z,2.20
2019-02-19T14:26:50.207Z,2.29
2019-02-19T14:27:50.186Z,2.50
2019-02-19T14:28:50.186Z,2.29
2019-02-19T14:29:50.167Z,2.50
2019-02-19T14:30:50.150Z,2.29
2019-02-19T14:31:50.138Z,2.40
2019-02-19T14:32:50.127Z,2.29
2019-02-19T14:33:50.119Z,2.09
2019-02-19T14:34:50.121Z,2.20
2019-02-19T14:35:50.090Z,2.09
2019-02-19T14:36:50.134Z,2.29
2019-02-19T14:37:50.072Z,2.09
2019-02-19T14:38:50.082Z,2.00
2019-02-19T14:39:50.095Z,2.20
2019-02-19T14:40:50.055Z,2.20
2019-02-19T14:41:50.042Z,2.09
2019-02-19T14:42:50.019Z,1.90
2019-02-19T14:43:50.013Z,2.40
2019-02-19T14:44:50.018Z,2.09
2019-02-19T14:45:49.994Z,2.09
2019-02-19T14:46:50.024Z,2.09
2019-02-19T14:47:49.961Z,2.29
2019-02-19T14:48:49.982Z,2.00
2019-02-19T14:49:49.935Z,2.00
2019-02-19T14:50:49.935Z,2.50
2019-02-19T14:51:49.919Z,2.00
2019-02-19T14:52:49.966Z,2.09
2019-02-19T14:53:49.903Z,1.90
2019-02-19T14:54:49.884Z,2.20
2019-02-19T14:55:49.896Z,1.70
2019-02-19T14:56:49.882Z,1.79
2019-02-19T14:57:49.868Z,2.00
2019-02-19T14:58:49.851Z,2.00
2019-02-19T14:59:49.824Z,2.20
2019-02-19T15:00:49.836Z,2.09
2019-02-19T15:01:49.882Z,2.00
2019-02-19T15:02:49.803Z,2.00
2019-02-19T15:03:49.805Z,2.00
2019-02-19T15:04:49.769Z,2.00
2019-02-19T15:05:49.890Z,2.29
2019-02-19T15:06:49.757Z,1.90
2019-02-19T15:07:51.737Z,2.20
2019-02-19T15:08:49.738Z,2.59
2019-02-19T15:09:49.729Z,1.70
2019-02-19T15:10:49.830Z,2.20
2019-02-19T15:11:49.709Z,2.09
2019-02-19T15:12:49.759Z,2.20
2019-02-19T15:13:49.698Z,2.20
2019-02-19T15:14:49.668Z,2.09
2019-02-19T15:15:49.661Z,2.50
2019-02-19T15:16:49.640Z,2.00
2019-02-19T15:17:49.653Z,2.00
2019-02-19T15:18:49.687Z,2.29
2019-02-19T15:19:49.667Z,2.20
2019-02-19T15:20:49.607Z,2.09
2019-02-19T15:21:49.588Z,1.90
2019-02-19T15:22:49.609Z,1.90
2019-02-19T15:23:49.572Z,2.09
2019-02-19T15:24:49.587Z,2.20
2019-02-19T15:25:49.554Z,2.29
2019-02-19T15:26:49.547Z,2.00
2019-02-19T15:27:49.527Z,2.00
2019-02-19T15:28:49.534Z,2.00
2019-02-19T15:29:49.517Z,2.00
2019-02-19T15:30:49.544Z,2.00
2019-02-19T15:31:50.157Z,2.20
2019-02-19T15:32:49.489Z,2.20
2019-02-19T15:33:49.488Z,2.09
2019-02-19T15:34:49.573Z,2.09
2019-02-19T15:35:49.515Z,2.00
2019-02-19T15:36:49.431Z,2.00
2019-02-19T15:37:49.414Z,1.90
2019-02-19T15:38:49.434Z,2.40
2019-02-19T15:39:49.403Z,2.40
2019-02-19T15:40:49.385Z,2.09
2019-02-19T15:41:49.400Z,2.00
2019-02-19T15:42:49.359Z,2.20
2019-02-19T15:43:49.353Z,2.00
2019-02-19T15:44:49.349Z,1.70
2019-02-19T15:45:49.385Z,2.00
2019-02-19T15:46:49.331Z,1.50
2019-02-19T15:47:49.305Z,2.00
2019-02-19T15:48:49.343Z,1.79
2019-02-19T15:49:49.337Z,2.00
2019-02-19T15:50:49.281Z,1.70
2019-02-19T15:51:49.322Z,2.00
2019-02-19T15:52:49.260Z,2.20
2019-02-19T15:53:49.736Z,1.90
2019-02-19T15:54:49.245Z,1.70
2019-02-19T15:55:49.229Z,2.09
2019-02-19T15:56:49.204Z,1.90
2019-02-19T15:57:49.214Z,2.09
2019-02-19T15:58:49.211Z,2.00
2019-02-19T15:59:49.190Z,1.90
2019-02-19T16:00:49.163Z,2.00
2019-02-19T16:01:49.178Z,2.50
2019-02-19T16:02:49.139Z,2.00
2019-02-19T16:03:49.199Z,1.79
2019-02-19T16:04:49.129Z,2.00
2019-02-19T16:05:49.112Z,2.00
2019-02-19T16:06:49.109Z,1.70
2019-02-19T16:07:49.116Z,1.70
2019-02-19T16:08:49.074Z,2.00
2019-02-19T16:09:49.084Z,2.00
2019-02-19T16:10:49.062Z,1.79
2019-02-19T16:11:49.053Z,1.79
2019-02-19T16:12:49.058Z,2.29
2019-02-19T16:13:49.022Z,2.09
2019-02-19T16:14:49.025Z,1.90
2019-02-19T16:15:49.033Z,2.09
2019-02-19T16:16:49.013Z,1.79
2019-02-19T16:17:49.040Z,1.90
2019-02-19T16:18:48.993Z,1.90
2019-02-19T16:19:56.813Z,2.00
2019-02-19T16:21:14.032Z,2.20
2019-02-19T16:22:14.023Z,2.20
2019-02-19T16:23:14.014Z,2.00
2019-02-19T16:24:14.018Z,1.79
2019-02-19T16:25:13.977Z,2.00
2019-02-19T16:26:14.797Z,2.40
2019-02-19T16:27:13.967Z,2.09
2019-02-19T16:28:13.941Z,2.09
2019-02-19T16:29:13.933Z,1.90
2019-02-19T16:30:13.922Z,2.20
2019-02-19T16:31:13.917Z,1.90
2019-02-19T16:32:13.902Z,1.79
2019-02-19T16:33:15.080Z,1.90
2019-02-19T16:34:13.926Z,1.50
2019-02-19T16:35:13.871Z,2.00
2019-02-19T16:36:13.874Z,1.90
2019-02-19T16:37:13.859Z,1.90
2019-02-19T16:38:13.851Z,2.20
2019-02-19T16:39:13.824Z,2.20
2019-02-19T16:40:13.936Z,1.90
2019-02-19T16:41:13.822Z,2.00
2019-02-19T16:42:13.808Z,1.79
2019-02-19T16:43:13.787Z,1.70
2019-02-19T16:44:13.771Z,1.90
2019-02-19T16:45:13.751Z,2.09
2019-02-19T16:46:13.743Z,2.09
2019-02-19T16:47:13.740Z,2.09
2019-02-19T16:48:13.749Z,1.90
2019-02-19T16:49:13.732Z,2.00
2019-02-19T16:50:13.705Z,1.90
2019-02-19T16:51:13.709Z,2.00
2019-02-19T16:52:13.691Z,2.20
2019-02-19T16:53:13.679Z,2.00
2019-02-19T16:54:13.658Z,2.20
2019-02-19T16:55:13.754Z,2.00
2019-02-19T16:56:13.632Z,2.00
2019-02-19T16:57:13.636Z,1.90
2019-02-19T16:58:13.640Z,2.29
2019-02-19T16:59:13.627Z,2.00
2019-02-19T17:00:13.603Z,2.00
2019-02-19T17:01:13.598Z,2.09
2019-02-19T17:02:13.579Z,2.09
2019-02-19T17:03:13.568Z,2.
2019-02-19T17:04:13.557Z,2.
2019-02-19T17:05:13.542Z,2.
2019-02-19T17:06:13.529Z,2.
2019-02-19T17:07:13.522Z,1.
2019-02-19T17:08:13.511Z,2.
2019-02-19T17:09:13.512Z,2.
2019-02-19T17:10:13.482Z,2.
2019-02-19T17:11:13.473Z,2.
2019-02-19T17:12:13.466Z,2.
2019-02-19T17:13:13.473Z,1.
2019-02-19T17:14:13.446Z,1.
2019-02-19T17:15:13.481Z,1.
2019-02-19T17:16:13.544Z,2.
2019-02-19T17:17:13.410Z,2.
2019-02-19T17:18:13.410Z,1.
2019-02-19T17:19:13.397Z,2.
2019-02-19T17:20:21.281Z,1.
2019-02-19T17:21:38.842Z,2.
2019-02-19T17:22:38.831Z,2.
2019-02-19T17:23:38.834Z,1.
